Time;durP1;ratioP1;P1;durP2;ratioP2;P2;SDS_P1;SDS_P2;PMS_P1;PMS_P2;Temp;Humidity;BMP_temperature;BMP_pressure;BME280_temperature;BME280_humidity;BME280_pressure;Samples;Min_cycle;Max_cycle;Signal;HPM_P1;HPM_P2
2021/05/07 00:02:20;;;;;;;141.40;44.55;;;;;;;;;;5049875;28;20542;-61
2021/05/07 00:04:47;;;;;;;142.73;45.72;;;;;;;;;;5050404;28;20484;-59
2021/05/07 00:07:14;;;;;;;126.53;44.45;;;;;;;;;;5063865;28;20028;-61
2021/05/07 00:09:41;;;;;;;144.93;48.20;;;;;;;;;;5064453;28;20063;-61
2021/05/07 00:12:09;;;;;;;146.63;47.35;;;;;;;;;;5059655;28;20025;-62
2021/05/07 00:14:36;;;;;;;146.77;47.97;;;;;;;;;;5065763;28;20052;-62
2021/05/07 00:17:03;;;;;;;236.80;72.72;;;;;;;;;;5063029;28;20044;-62
2021/05/07 00:19:30;;;;;;;179.52;58.45;;;;;;;;;;5054249;28;20025;-61
2021/05/07 00:21:57;;;;;;;169.82;55.22;;;;;;;;;;5062646;28;20037;-61
2021/05/07 00:24:24;;;;;;;176.68;56.55;;;;;;;;;;5070285;28;20078;-60
2021/05/07 00:26:51;;;;;;;184.10;62.70;;;;;;;;;;5067207;28;20427;-62
2021/05/07 00:29:18;;;;;;;218.95;70.72;;;;;;;;;;5063951;28;20108;-64
2021/05/07 00:31:45;;;;;;;187.90;60.70;;;;;;;;;;5041483;28;20035;-61
2021/05/07 00:34:12;;;;;;;187.32;61.85;;;;;;;;;;5062363;28;20087;-62
2021/05/07 00:36:39;;;;;;;200.75;63.75;;;;;;;;;;5059044;28;20036;-63
2021/05/07 00:39:06;;;;;;;191.35;60.97;;;;;;;;;;5061006;28;20063;-61
2021/05/07 00:41:33;;;;;;;202.00;65.28;;;;;;;;;;5062163;28;20544;-60
2021/05/07 00:44:00;;;;;;;208.95;64.75;;;;;;;;;;5052567;28;20159;-60
2021/05/07 00:46:27;;;;;;;188.95;62.35;;;;;;;;;;5062786;28;20021;-62
2021/05/07 00:48:54;;;;;;;190.80;60.80;;;;;;;;;;5063290;28;20462;-61
2021/05/07 00:51:22;;;;;;;211.40;66.85;;;;;;;;;;5062778;28;20136;-61
2021/05/07 00:53:49;;;;;;;224.45;68.63;;;;;;;;;;5044166;28;20567;-63
2021/05/07 00:56:16;;;;;;;206.13;66.32;;;;;;;;;;5061025;28;20107;-62
2021/05/07 00:58:43;;;;;;;204.68;65.25;;;;;;;;;;5066406;28;20029;-63
2021/05/07 01:01:10;;;;;;;219.23;66.75;;;;;;;;;;5064109;28;20074;-63
2021/05/07 01:03:37;;;;;;;191.43;62.17;;;;;;;;;;5059162;28;20053;-65
2021/05/07 01:06:05;;;;;;;236.52;73.57;;;;;;;;;;5063303;28;20037;-63
2021/05/07 01:08:32;;;;;;;225.85;73.78;;;;;;;;;;5058570;28;20020;-62
2021/05/07 01:10:58;;;;;;;227.25;72.80;;;;;;;;;;5069509;28;20029;-62
2021/05/07 01:13:26;;;;;;;217.20;68.57;;;;;;;;;;5062229;28;20028;-61
2021/05/07 01:15:53;;;;;;;201.13;68.25;;;;;;;;;;5062342;28;20017;-65
2021/05/07 01:18:20;;;;;;;203.70;64.93;;;;;;;;;;5056210;28;20025;-63
2021/05/07 01:20:47;;;;;;;182.65;62.47;;;;;;;;;;5051409;28;20108;-64
2021/05/07 01:23:14;;;;;;;191.32;65.43;;;;;;;;;;5053155;28;20036;-63
2021/05/07 01:25:42;;;;;;;205.82;64.07;;;;;;;;;;5065839;28;20028;-63
2021/05/07 01:28:10;;;;;;;195.10;68.40;;;;;;;;;;5055558;28;20021;-62
2021/05/07 01:30:41;;;;;;;214.95;69.03;;;;;;;;;;5072388;28;20027;-63
2021/05/07 01:33:13;;;;;;;197.65;67.03;;;;;;;;;;5070621;28;20025;-62
2021/05/07 01:35:41;;;;;;;199.52;68.40;;;;;;;;;;5073142;28;20052;-62
2021/05/07 01:38:09;;;;;;;203.52;71.00;;;;;;;;;;5072672;28;20027;-61
2021/05/07 01:40:37;;;;;;;207.40;68.93;;;;;;;;;;5073365;28;20378;-63
2021/05/07 01:43:04;;;;;;;210.05;72.10;;;;;;;;;;5073020;28;20051;-62
2021/05/07 01:45:32;;;;;;;234.98;75.10;;;;;;;;;;5073108;28;20025;-61
2021/05/07 01:48:00;;;;;;;238.32;77.70;;;;;;;;;;5072453;28;20702;-60
2021/05/07 01:50:28;;;;;;;238.48;77.90;;;;;;;;;;5069016;28;20123;-61
2021/05/07 01:52:55;;;;;;;222.15;75.18;;;;;;;;;;5072542;28;20032;-61
2021/05/07 01:55:24;;;;;;;228.23;75.22;;;;;;;;;;5054817;28;20056;-60
2021/05/07 01:57:51;;;;;;;217.63;75.40;;;;;;;;;;5073579;28;20020;-62
2021/05/07 02:00:22;;;;;;;235.18;77.03;;;;;;;;;;5073630;28;20073;-62
2021/05/07 02:02:50;;;;;;;239.82;80.53;;;;;;;;;;5073495;28;20059;-62
2021/05/07 02:05:21;;;;;;;243.02;78.93;;;;;;;;;;5073645;28;20031;-60
2021/05/07 02:07:48;;;;;;;263.90;86.10;;;;;;;;;;5071934;28;20356;-61
2021/05/07 02:10:17;;;;;;;245.77;83.45;;;;;;;;;;5073531;28;20032;-62
2021/05/07 02:12:44;;;;;;;254.00;82.88;;;;;;;;;;5055379;28;20541;-61
2021/05/07 02:15:13;;;;;;;255.68;83.05;;;;;;;;;;5065945;28;20031;-61
2021/05/07 02:17:40;;;;;;;244.40;80.05;;;;;;;;;;5072713;28;20352;-61
2021/05/07 02:20:08;;;;;;;250.43;86.68;;;;;;;;;;5073197;28;20099;-62
2021/05/07 02:22:36;;;;;;;250.60;84.72;;;;;;;;;;5073070;28;20028;-62
2021/05/07 02:25:04;;;;;;;269.95;86.65;;;;;;;;;;5072848;28;20154;-61
2021/05/07 02:27:31;;;;;;;258.95;83.65;;;;;;;;;;5054224;28;20070;-61
2021/05/07 02:29:58;;;;;;;248.88;83.43;;;;;;;;;;5071469;28;20028;-60
2021/05/07 02:32:25;;;;;;;242.10;82.60;;;;;;;;;;5072534;28;20054;-60
2021/05/07 02:34:52;;;;;;;218.93;74.78;;;;;;;;;;5071383;28;20038;-61
2021/05/07 02:37:19;;;;;;;225.35;72.68;;;;;;;;;;5073022;28;20021;-60
2021/05/07 02:39:46;;;;;;;201.13;68.45;;;;;;;;;;5072321;28;20021;-61
2021/05/07 02:42:13;;;;;;;192.60;67.35;;;;;;;;;;5073075;28;20024;-60
2021/05/07 02:44:40;;;;;;;196.77;67.45;;;;;;;;;;5070780;28;20111;-60
2021/05/07 02:47:07;;;;;;;180.18;63.42;;;;;;;;;;5071316;28;20028;-60
2021/05/07 02:49:34;;;;;;;177.65;60.78;;;;;;;;;;5070830;28;20043;-61
2021/05/07 02:52:02;;;;;;;178.88;59.63;;;;;;;;;;5071865;28;20546;-61
2021/05/07 02:54:33;;;;;;;182.02;62.10;;;;;;;;;;5071944;28;20036;-61
2021/05/07 02:57:00;;;;;;;196.68;69.20;;;;;;;;;;5072727;28;20020;-61
2021/05/07 02:59:28;;;;;;;204.38;68.57;;;;;;;;;;5072054;28;20024;-60
2021/05/07 03:01:55;;;;;;;212.77;71.28;;;;;;;;;;5071541;28;20028;-60
2021/05/07 03:04:22;;;;;;;185.75;67.07;;;;;;;;;;5071305;28;20048;-61
2021/05/07 03:06:52;;;;;;;200.90;69.80;;;;;;;;;;5054630;28;20508;-60
2021/05/07 03:09:19;;;;;;;198.50;64.35;;;;;;;;;;5072177;28;20424;-60
2021/05/07 03:11:46;;;;;;;168.90;61.45;;;;;;;;;;5072076;28;20052;-61
2021/05/07 03:14:13;;;;;;;171.52;61.00;;;;;;;;;;5072344;28;20036;-61
2021/05/07 03:16:40;;;;;;;175.70;61.80;;;;;;;;;;5071678;28;20048;-61
2021/05/07 03:19:07;;;;;;;177.60;61.95;;;;;;;;;;5072324;28;20036;-61
2021/05/07 03:21:34;;;;;;;170.38;59.97;;;;;;;;;;5054188;28;20187;-61
2021/05/07 03:24:01;;;;;;;167.20;61.40;;;;;;;;;;5072109;28;20124;-60
2021/05/07 03:26:28;;;;;;;167.00;60.25;;;;;;;;;;5071736;28;20016;-60
2021/05/07 03:28:55;;;;;;;170.90;58.47;;;;;;;;;;5054458;28;20387;-60
2021/05/07 03:31:22;;;;;;;156.60;57.55;;;;;;;;;;5048889;28;20021;-60
2021/05/07 03:33:49;;;;;;;147.55;56.70;;;;;;;;;;5059561;28;20033;-60
2021/05/07 03:36:17;;;;;;;142.00;55.22;;;;;;;;;;5071870;28;20013;-61
2021/05/07 03:38:44;;;;;;;156.38;56.30;;;;;;;;;;5035384;28;20499;-61
2021/05/07 03:41:11;;;;;;;151.25;54.35;;;;;;;;;;5051586;28;20056;-60
2021/05/07 03:43:38;;;;;;;137.23;53.03;;;;;;;;;;5034589;28;20036;-60
2021/05/07 03:46:05;;;;;;;149.82;54.58;;;;;;;;;;5051288;28;20024;-60
2021/05/07 03:48:32;;;;;;;136.35;52.38;;;;;;;;;;5069169;28;20479;-61
2021/05/07 03:51:00;;;;;;;143.57;51.85;;;;;;;;;;5072009;28;20124;-61
2021/05/07 03:53:27;;;;;;;140.82;52.78;;;;;;;;;;5053586;28;20040;-61
2021/05/07 03:55:57;;;;;;;132.68;50.67;;;;;;;;;;5071586;28;20017;-61
2021/05/07 03:58:24;;;;;;;139.10;51.15;;;;;;;;;;5071489;28;20078;-60
2021/05/07 04:00:51;;;;;;;133.73;49.53;;;;;;;;;;5054153;28;20024;-61
2021/05/07 04:03:18;;;;;;;132.73;50.70;;;;;;;;;;5055534;28;20079;-60
2021/05/07 04:05:49;;;;;;;133.70;50.85;;;;;;;;;;5052001;28;20100;-61
2021/05/07 04:08:25;;;;;;;126.63;48.63;;;;;;;;;;5148660;22;20049;-60
2021/05/07 04:11:07;;;;;;;115.55;45.83;;;;;;;;;;5036292;28;20530;-61
2021/05/07 04:13:40;;;;;;;119.97;45.33;;;;;;;;;;5051427;28;20068;-60
2021/05/07 04:16:08;;;;;;;118.53;46.17;;;;;;;;;;5050141;28;20031;-60
2021/05/07 04:18:35;;;;;;;118.40;45.55;;;;;;;;;;5034351;28;20485;-60
2021/05/07 04:21:03;;;;;;;115.28;45.25;;;;;;;;;;5041802;28;20056;-60
2021/05/07 04:23:30;;;;;;;113.97;44.65;;;;;;;;;;5043216;28;20762;-60
2021/05/07 04:25:57;;;;;;;120.82;45.13;;;;;;;;;;5051221;28;20468;-61
2021/05/07 04:28:24;;;;;;;118.93;44.65;;;;;;;;;;5051110;28;20025;-61
2021/05/07 04:30:51;;;;;;;112.95;43.72;;;;;;;;;;5051678;28;20075;-61
2021/05/07 04:33:18;;;;;;;108.72;43.00;;;;;;;;;;5051034;28;20499;-60
2021/05/07 04:35:45;;;;;;;115.18;43.38;;;;;;;;;;5051795;28;20025;-60
2021/05/07 04:38:12;;;;;;;109.82;41.75;;;;;;;;;;5035139;28;20122;-60
2021/05/07 04:40:40;;;;;;;95.85;38.90;;;;;;;;;;5031330;28;20018;-60
2021/05/07 04:43:07;;;;;;;102.20;41.50;;;;;;;;;;5031808;28;20026;-60
2021/05/07 04:45:34;;;;;;;102.80;40.13;;;;;;;;;;5013853;28;20504;-60
2021/05/07 04:48:01;;;;;;;99.20;39.25;;;;;;;;;;5031402;28;20053;-61
2021/05/07 04:50:29;;;;;;;96.15;38.55;;;;;;;;;;5031029;28;20056;-60
2021/05/07 04:52:56;;;;;;;105.15;39.63;;;;;;;;;;5031537;28;20045;-61
2021/05/07 04:55:23;;;;;;;95.20;37.22;;;;;;;;;;5031061;28;20026;-60
2021/05/07 04:57:50;;;;;;;96.63;38.40;;;;;;;;;;5034077;28;20098;-61
2021/05/07 05:00:17;;;;;;;97.95;37.53;;;;;;;;;;5034644;28;20447;-60
2021/05/07 05:02:44;;;;;;;95.43;39.13;;;;;;;;;;5033772;28;20056;-60
2021/05/07 05:05:12;;;;;;;97.68;37.33;;;;;;;;;;5034430;28;20500;-60
2021/05/07 05:07:47;;;;;;;89.53;35.67;;;;;;;;;;5034853;28;20111;-60
2021/05/07 05:10:14;;;;;;;95.90;35.90;;;;;;;;;;5034144;28;20095;-60
2021/05/07 05:12:41;;;;;;;83.75;34.72;;;;;;;;;;5034716;28;20032;-61
2021/05/07 05:15:08;;;;;;;89.18;34.38;;;;;;;;;;5034558;28;20037;-60
2021/05/07 05:17:35;;;;;;;83.35;34.25;;;;;;;;;;5016930;28;20104;-60
2021/05/07 05:20:02;;;;;;;89.60;33.75;;;;;;;;;;5034509;28;20075;-61
2021/05/07 05:22:29;;;;;;;85.53;35.30;;;;;;;;;;5034438;28;20477;-60
2021/05/07 05:24:57;;;;;;;89.47;35.53;;;;;;;;;;5034603;28;20430;-61
2021/05/07 05:27:25;;;;;;;80.80;34.15;;;;;;;;;;5026122;28;20052;-60
2021/05/07 05:29:52;;;;;;;82.30;32.33;;;;;;;;;;5036036;28;20025;-60
2021/05/07 05:32:19;;;;;;;82.20;31.52;;;;;;;;;;5033924;28;20029;-61
2021/05/07 05:34:46;;;;;;;81.45;31.65;;;;;;;;;;5034370;28;20025;-61
2021/05/07 05:37:13;;;;;;;66.15;28.80;;;;;;;;;;5024884;28;20116;-60
2021/05/07 05:39:40;;;;;;;73.97;29.50;;;;;;;;;;5052757;28;20029;-60
2021/05/07 05:42:07;;;;;;;68.38;28.33;;;;;;;;;;5052117;28;20017;-60
2021/05/07 05:44:34;;;;;;;70.47;29.08;;;;;;;;;;5054029;28;20032;-60
2021/05/07 05:47:01;;;;;;;71.10;28.67;;;;;;;;;;5035945;28;20094;-60
2021/05/07 05:49:28;;;;;;;68.72;28.13;;;;;;;;;;5033664;28;20037;-60
2021/05/07 05:51:55;;;;;;;65.65;29.08;;;;;;;;;;5032428;28;20025;-60
2021/05/07 05:54:22;;;;;;;61.58;26.08;;;;;;;;;;5032596;28;20044;-60
2021/05/07 05:56:49;;;;;;;67.60;26.85;;;;;;;;;;5033722;28;20025;-60
2021/05/07 05:59:17;;;;;;;65.13;26.20;;;;;;;;;;5033138;28;20033;-60
2021/05/07 06:01:44;;;;;;;67.88;27.65;;;;;;;;;;5033661;28;20025;-60
2021/05/07 06:04:12;;;;;;;61.22;25.45;;;;;;;;;;5031683;28;20099;-60
2021/05/07 06:06:39;;;;;;;63.20;25.38;;;;;;;;;;5032946;28;20025;-61
2021/05/07 06:09:07;;;;;;;54.13;24.13;;;;;;;;;;5031614;28;20095;-61
2021/05/07 06:11:34;;;;;;;55.13;23.30;;;;;;;;;;5033503;28;20053;-61
2021/05/07 06:14:01;;;;;;;58.72;24.10;;;;;;;;;;5033081;28;20042;-60
2021/05/07 06:16:28;;;;;;;63.65;26.25;;;;;;;;;;5031758;28;20029;-60
2021/05/07 06:18:55;;;;;;;63.22;25.45;;;;;;;;;;5031930;28;20083;-60
2021/05/07 06:21:22;;;;;;;56.17;23.10;;;;;;;;;;5033527;28;20025;-60
2021/05/07 06:23:49;;;;;;;62.92;25.10;;;;;;;;;;5032856;28;20063;-60
2021/05/07 06:26:16;;;;;;;59.70;24.02;;;;;;;;;;5033275;28;20032;-60
2021/05/07 06:28:43;;;;;;;57.13;24.27;;;;;;;;;;5031091;28;20025;-60
2021/05/07 06:31:10;;;;;;;52.70;23.55;;;;;;;;;;5033084;28;20100;-60
2021/05/07 06:33:37;;;;;;;53.40;22.42;;;;;;;;;;5033195;28;20034;-59
2021/05/07 06:36:04;;;;;;;47.90;21.90;;;;;;;;;;5032950;28;20028;-61
2021/05/07 06:38:31;;;;;;;52.53;22.38;;;;;;;;;;5031479;28;20029;-60
2021/05/07 06:40:58;;;;;;;50.05;21.80;;;;;;;;;;5051585;28;20476;-60
2021/05/07 06:43:26;;;;;;;47.28;21.55;;;;;;;;;;5053652;28;20104;-60
2021/05/07 06:45:53;;;;;;;52.28;21.60;;;;;;;;;;5053600;28;20071;-62
2021/05/07 06:48:20;;;;;;;45.33;20.10;;;;;;;;;;5052619;28;20029;-61
2021/05/07 06:50:47;;;;;;;50.05;22.40;;;;;;;;;;5053227;28;20048;-60
2021/05/07 06:53:14;;;;;;;47.00;21.13;;;;;;;;;;5053127;28;20384;-61
2021/05/07 06:55:41;;;;;;;48.85;21.00;;;;;;;;;;5052872;28;20021;-60
2021/05/07 06:58:08;;;;;;;47.10;20.70;;;;;;;;;;5052992;28;20033;-61
2021/05/07 07:00:37;;;;;;;48.45;20.00;;;;;;;;;;5052683;28;20017;-60
2021/05/07 07:03:04;;;;;;;45.63;20.70;;;;;;;;;;5052911;28;20025;-61
2021/05/07 07:05:31;;;;;;;45.45;20.63;;;;;;;;;;5053019;28;20376;-60
2021/05/07 07:07:58;;;;;;;44.53;19.25;;;;;;;;;;5052340;28;20031;-62
2021/05/07 07:10:25;;;;;;;43.83;18.38;;;;;;;;;;5052713;28;20056;-61
2021/05/07 07:12:52;;;;;;;43.97;19.35;;;;;;;;;;5052756;28;20493;-60
2021/05/07 07:15:19;;;;;;;42.72;18.60;;;;;;;;;;5052319;28;20052;-60
2021/05/07 07:17:46;;;;;;;45.25;19.38;;;;;;;;;;5052452;28;20393;-60
2021/05/07 07:20:14;;;;;;;41.67;18.60;;;;;;;;;;5052434;28;20032;-60
2021/05/07 07:22:41;;;;;;;42.15;18.20;;;;;;;;;;5052665;28;20021;-61
2021/05/07 07:25:10;;;;;;;38.50;16.63;;;;;;;;;;5052126;28;20492;-60
2021/05/07 07:27:37;;;;;;;37.75;17.60;;;;;;;;;;5052221;28;20025;-61
2021/05/07 07:30:05;;;;;;;40.60;17.15;;;;;;;;;;5052465;28;20100;-61
2021/05/07 07:32:32;;;;;;;38.42;17.20;;;;;;;;;;5051583;28;20369;-61
2021/05/07 07:35:02;;;;;;;38.47;16.02;;;;;;;;;;5034700;28;20380;-61
2021/05/07 07:37:29;;;;;;;41.55;17.73;;;;;;;;;;5052087;28;20025;-60
2021/05/07 07:40:00;;;;;;;34.20;16.58;;;;;;;;;;5052278;28;20096;-60
2021/05/07 07:42:27;;;;;;;35.17;15.88;;;;;;;;;;5051791;28;20021;-60
2021/05/07 07:44:54;;;;;;;41.15;16.23;;;;;;;;;;5052047;28;20025;-60
2021/05/07 07:47:21;;;;;;;37.40;16.10;;;;;;;;;;5051810;28;20025;-60
2021/05/07 07:49:48;;;;;;;37.15;15.43;;;;;;;;;;5051777;28;20381;-61
2021/05/07 07:52:16;;;;;;;38.28;16.27;;;;;;;;;;5051884;28;20442;-61
2021/05/07 07:54:43;;;;;;;36.33;14.73;;;;;;;;;;5051526;28;20079;-60
2021/05/07 07:57:10;;;;;;;39.13;16.63;;;;;;;;;;5051785;28;20418;-61
2021/05/07 07:59:37;;;;;;;36.38;16.05;;;;;;;;;;5051445;28;20353;-60
2021/05/07 08:02:04;;;;;;;32.22;14.85;;;;;;;;;;5051747;28;20021;-61
2021/05/07 08:04:31;;;;;;;34.35;15.15;;;;;;;;;;5051418;28;20515;-60
2021/05/07 08:07:00;;;;;;;33.47;15.55;;;;;;;;;;5051967;28;20055;-60
2021/05/07 08:09:27;;;;;;;34.85;14.98;;;;;;;;;;5051267;28;20056;-60
2021/05/07 08:11:54;;;;;;;31.42;13.65;;;;;;;;;;5051782;28;20055;-61
2021/05/07 08:14:21;;;;;;;31.45;14.27;;;;;;;;;;5050856;28;20492;-60
2021/05/07 08:16:48;;;;;;;27.88;13.40;;;;;;;;;;5051879;28;20476;-61
2021/05/07 08:19:15;;;;;;;31.13;13.90;;;;;;;;;;5051234;28;20492;-60
2021/05/07 08:21:42;;;;;;;32.00;14.07;;;;;;;;;;5046239;28;20025;-60
2021/05/07 08:24:10;;;;;;;31.77;14.68;;;;;;;;;;5050220;28;20025;-60
2021/05/07 08:26:37;;;;;;;34.50;14.85;;;;;;;;;;5051796;28;20024;-60
2021/05/07 08:29:04;;;;;;;31.50;13.60;;;;;;;;;;5051386;28;20017;-60
2021/05/07 08:31:31;;;;;;;30.27;13.30;;;;;;;;;;5051724;28;20099;-60
2021/05/07 08:33:58;;;;;;;30.27;14.07;;;;;;;;;;5055612;28;20100;-61
2021/05/07 08:36:26;;;;;;;28.25;13.18;;;;;;;;;;5052815;28;20100;-60
2021/05/07 08:38:53;;;;;;;29.10;12.65;;;;;;;;;;5036011;28;20029;-61
2021/05/07 08:41:20;;;;;;;29.38;12.88;;;;;;;;;;5035081;28;20539;-61
2021/05/07 08:43:51;;;;;;;24.75;12.20;;;;;;;;;;5035321;28;20033;-60
2021/05/07 08:46:18;;;;;;;27.98;13.10;;;;;;;;;;5034815;28;20025;-61
2021/05/07 08:48:45;;;;;;;26.85;11.90;;;;;;;;;;5035379;28;20021;-61
2021/05/07 08:51:13;;;;;;;29.75;13.23;;;;;;;;;;5034835;28;20574;-62
2021/05/07 08:53:40;;;;;;;32.45;12.52;;;;;;;;;;5035292;28;20053;-61
2021/05/07 08:56:08;;;;;;;26.77;11.40;;;;;;;;;;5034740;28;20025;-60
2021/05/07 08:58:36;;;;;;;22.80;10.85;;;;;;;;;;5034954;28;20116;-61
2021/05/07 09:01:04;;;;;;;28.02;11.70;;;;;;;;;;5034651;28;20021;-60
2021/05/07 09:03:40;;;;;;;22.48;11.43;;;;;;;;;;5035274;28;20030;-61
2021/05/07 09:06:27;;;;;;;22.25;11.45;;;;;;;;;;5035241;28;20025;-61
2021/05/07 09:08:54;;;;;;;26.50;11.25;;;;;;;;;;5034645;28;20073;-60
2021/05/07 09:11:21;;;;;;;25.02;10.95;;;;;;;;;;5034849;28;20022;-60
2021/05/07 09:13:48;;;;;;;22.25;10.48;;;;;;;;;;5034427;28;20068;-60
2021/05/07 09:16:15;;;;;;;23.98;10.65;;;;;;;;;;5035078;28;20056;-61
2021/05/07 09:18:50;;;;;;;22.20;10.55;;;;;;;;;;5034233;28;20112;-60
2021/05/07 09:21:17;;;;;;;25.88;10.75;;;;;;;;;;5034688;28;20048;-60
2021/05/07 09:23:46;;;;;;;22.98;10.63;;;;;;;;;;5034137;28;20029;-60
2021/05/07 09:26:13;;;;;;;25.95;10.13;;;;;;;;;;5034563;28;20028;-60
2021/05/07 09:28:51;;;;;;;22.88;10.07;;;;;;;;;;5034222;28;20030;-61
2021/05/07 09:31:19;;;;;;;21.35;10.00;;;;;;;;;;5034543;28;20040;-61
2021/05/07 09:33:50;;;;;;;21.83;10.38;;;;;;;;;;5034153;28;20037;-62
2021/05/07 09:36:27;;;;;;;21.48;9.38;;;;;;;;;;5034408;28;20032;-62
2021/05/07 09:38:56;;;;;;;18.45;9.52;;;;;;;;;;5033850;28;20030;-61
2021/05/07 09:41:23;;;;;;;18.30;9.50;;;;;;;;;;5034249;28;20023;-60
2021/05/07 09:43:50;;;;;;;21.83;9.63;;;;;;;;;;5034007;28;20022;-61
2021/05/07 09:46:17;;;;;;;17.92;8.73;;;;;;;;;;5034126;28;20029;-61
2021/05/07 09:48:45;;;;;;;19.17;9.38;;;;;;;;;;5033720;28;20025;-61
2021/05/07 09:51:14;;;;;;;21.15;9.30;;;;;;;;;;5034444;28;20104;-60
2021/05/07 09:53:42;;;;;;;18.60;8.40;;;;;;;;;;5033375;28;20076;-61
2021/05/07 09:56:12;;;;;;;16.83;8.73;;;;;;;;;;5034143;28;20096;-60
2021/05/07 09:58:39;;;;;;;19.25;8.90;;;;;;;;;;5033766;28;20037;-60
2021/05/07 10:01:06;;;;;;;20.50;8.57;;;;;;;;;;5033943;28;20475;-61
2021/05/07 10:03:33;;;;;;;18.38;9.05;;;;;;;;;;5033656;28;20044;-61
2021/05/07 10:06:04;;;;;;;20.33;8.70;;;;;;;;;;5033632;28;20013;-61
2021/05/07 10:08:32;;;;;;;18.98;7.65;;;;;;;;;;5033752;28;20041;-61
2021/05/07 10:11:00;;;;;;;15.52;7.85;;;;;;;;;;5033256;28;20441;-61
2021/05/07 10:13:28;;;;;;;19.00;7.53;;;;;;;;;;5033584;28;20497;-61
2021/05/07 10:16:15;;;;;;;17.40;7.97;;;;;;;;;;5033340;28;20021;-61
2021/05/07 10:18:42;;;;;;;18.85;8.13;;;;;;;;;;5032730;28;20026;-60
2021/05/07 10:21:14;;;;;;;16.50;7.70;;;;;;;;;;5033358;28;20017;-60
2021/05/07 10:23:53;;;;;;;16.17;7.28;;;;;;;;;;5033702;28;20026;-61
2021/05/07 10:26:33;;;;;;;16.98;8.07;;;;;;;;;;5033471;28;20432;-61
2021/05/07 10:29:00;;;;;;;17.33;7.55;;;;;;;;;;5034008;28;20029;-61
2021/05/07 10:31:27;;;;;;;15.02;7.38;;;;;;;;;;5034223;28;20025;-60
2021/05/07 10:34:01;;;;;;;13.50;6.75;;;;;;;;;;5033463;28;20538;-61
2021/05/07 10:36:39;;;;;;;13.02;6.88;;;;;;;;;;5015892;28;20030;-60
2021/05/07 10:39:16;;;;;;;16.42;8.07;;;;;;;;;;5033172;28;20017;-61
2021/05/07 10:41:43;;;;;;;16.65;6.18;;;;;;;;;;5046248;28;20380;-61
2021/05/07 10:44:12;;;;;;;13.60;6.13;;;;;;;;;;5052519;28;20021;-61
2021/05/07 10:46:40;;;;;;;14.65;6.53;;;;;;;;;;5053385;28;20044;-61
2021/05/07 10:49:08;;;;;;;15.00;6.40;;;;;;;;;;5035017;28;20021;-61
2021/05/07 10:51:35;;;;;;;15.30;6.45;;;;;;;;;;5053393;28;20393;-62
2021/05/07 10:54:15;;;;;;;15.73;6.78;;;;;;;;;;5051963;28;20036;-62
2021/05/07 10:56:43;;;;;;;12.65;6.00;;;;;;;;;;5052794;28;20385;-61
2021/05/07 10:59:21;;;;;;;13.43;6.50;;;;;;;;;;5053293;28;20025;-61
2021/05/07 11:01:59;;;;;;;14.23;6.45;;;;;;;;;;5053272;28;20384;-62
2021/05/07 11:04:26;;;;;;;14.35;5.75;;;;;;;;;;5052516;28;20029;-62
2021/05/07 11:07:03;;;;;;;11.10;5.65;;;;;;;;;;5052531;28;20104;-61
2021/05/07 11:09:30;;;;;;;12.98;5.35;;;;;;;;;;5050693;28;20064;-61
2021/05/07 11:12:05;;;;;;;11.88;5.38;;;;;;;;;;5051239;28;20029;-61
2021/05/07 11:14:37;;;;;;;11.02;5.25;;;;;;;;;;5048244;28;20032;-61
2021/05/07 11:17:05;;;;;;;14.82;5.78;;;;;;;;;;5050230;28;20462;-61
2021/05/07 11:19:33;;;;;;;16.55;5.75;;;;;;;;;;5047645;28;20082;-60
2021/05/07 11:22:04;;;;;;;19.42;5.90;;;;;;;;;;5051807;28;20021;-64
2021/05/07 11:24:46;;;;;;;27.42;5.85;;;;;;;;;;5048817;28;20036;-66
2021/05/07 11:27:22;;;;;;;173.40;15.63;;;;;;;;;;5044853;28;20033;-70
2021/05/07 11:29:50;;;;;;;57.67;6.95;;;;;;;;;;5038867;28;20463;-69
2021/05/07 11:32:21;;;;;;;46.97;6.75;;;;;;;;;;5052089;28;20024;-62
2021/05/07 11:34:55;;;;;;;35.17;7.63;;;;;;;;;;5051488;28;20111;-66
2021/05/07 11:37:23;;;;;;;31.90;7.25;;;;;;;;;;5048971;28;20025;-64
2021/05/07 11:40:00;;;;;;;30.38;7.03;;;;;;;;;;5040598;28;20017;-67
2021/05/07 11:42:28;;;;;;;20.17;6.07;;;;;;;;;;5042213;28;20029;-66
2021/05/07 11:44:55;;;;;;;31.10;4.13;;;;;;;;;;5040159;28;20642;-66
2021/05/07 11:47:22;;;;;;;16.35;3.33;;;;;;;;;;5050707;28;20040;-65
2021/05/07 11:49:51;;;;;;;18.13;3.58;;;;;;;;;;5042344;28;20021;-67
2021/05/07 11:52:18;;;;;;;22.05;3.50;;;;;;;;;;5041796;28;20110;-67
2021/05/07 11:54:46;;;;;;;11.25;3.70;;;;;;;;;;5031226;28;20053;-66
2021/05/07 11:57:14;;;;;;;17.80;2.92;;;;;;;;;;5021345;28;20382;-66
2021/05/07 11:59:47;;;;;;;166.40;12.50;;;;;;;;;;5038418;28;20380;-66
2021/05/07 12:02:24;;;;;;;38.88;3.35;;;;;;;;;;5039711;28;20120;-65
2021/05/07 12:04:51;;;;;;;43.42;4.93;;;;;;;;;;5031394;28;20026;-65
2021/05/07 12:07:26;;;;;;;49.50;5.90;;;;;;;;;;5043273;28;20028;-67
2021/05/07 12:09:53;;;;;;;45.88;6.03;;;;;;;;;;5054670;28;20130;-65
2021/05/07 12:12:20;;;;;;;37.33;5.18;;;;;;;;;;5044410;28;20104;-65
2021/05/07 12:14:51;;;;;;;56.75;6.20;;;;;;;;;;5045644;28;20036;-65
2021/05/07 12:17:21;;;;;;;45.58;6.20;;;;;;;;;;5050006;28;20020;-65
2021/05/07 12:19:58;;;;;;;61.40;6.65;;;;;;;;;;5049979;28;20056;-65
2021/05/07 12:22:25;;;;;;;40.92;5.43;;;;;;;;;;5046992;28;20106;-66
2021/05/07 12:24:52;;;;;;;44.10;5.53;;;;;;;;;;5046545;28;20021;-65
2021/05/07 12:27:31;;;;;;;34.53;6.20;;;;;;;;;;5039767;28;20505;-66
2021/05/07 12:29:59;;;;;;;63.08;6.90;;;;;;;;;;5052564;28;20107;-61
2021/05/07 12:32:26;;;;;;;40.05;5.90;;;;;;;;;;5048798;28;20108;-63
2021/05/07 12:35:02;;;;;;;25.35;4.80;;;;;;;;;;5023630;28;20033;-63
2021/05/07 12:37:39;;;;;;;24.70;4.53;;;;;;;;;;5037349;28;20489;-63
2021/05/07 12:40:06;;;;;;;22.08;4.63;;;;;;;;;;5044827;28;20155;-64
2021/05/07 12:42:33;;;;;;;18.60;3.55;;;;;;;;;;5053843;28;20488;-64
2021/05/07 12:45:00;;;;;;;11.80;3.13;;;;;;;;;;5049916;28;20021;-64
2021/05/07 12:47:27;;;;;;;27.35;3.50;;;;;;;;;;5048772;28;20055;-65
2021/05/07 12:49:54;;;;;;;20.92;3.58;;;;;;;;;;5038449;28;20039;-65
2021/05/07 12:52:22;;;;;;;35.88;4.45;;;;;;;;;;5043796;28;20036;-61
2021/05/07 12:54:49;;;;;;;31.63;3.97;;;;;;;;;;5046822;28;20037;-72
2021/05/07 12:57:16;;;;;;;33.33;4.53;;;;;;;;;;5019835;28;20029;-70
2021/05/07 12:59:43;;;;;;;31.17;4.50;;;;;;;;;;5032211;28;20025;-71
2021/05/07 13:02:10;;;;;;;22.73;3.80;;;;;;;;;;5044103;28;20380;-69
2021/05/07 13:04:37;;;;;;;19.00;3.58;;;;;;;;;;5036146;28;20021;-65
2021/05/07 13:07:04;;;;;;;22.48;3.65;;;;;;;;;;5033572;28;20029;-64
2021/05/07 13:09:31;;;;;;;24.65;4.00;;;;;;;;;;5046677;28;20493;-64
2021/05/07 13:11:58;;;;;;;13.38;3.55;;;;;;;;;;5033077;28;20056;-64
2021/05/07 13:14:25;;;;;;;21.25;2.95;;;;;;;;;;5046925;28;20095;-63
2021/05/07 13:16:52;;;;;;;13.52;3.17;;;;;;;;;;5045261;28;20025;-64
2021/05/07 13:19:19;;;;;;;15.27;3.03;;;;;;;;;;5029047;28;20041;-65
2021/05/07 13:21:48;;;;;;;14.65;2.83;;;;;;;;;;5043145;28;20022;-64
2021/05/07 13:24:15;;;;;;;17.17;3.15;;;;;;;;;;5049095;28;20026;-62
2021/05/07 13:26:42;;;;;;;15.98;2.85;;;;;;;;;;5042540;28;20104;-61
2021/05/07 13:29:09;;;;;;;12.00;2.67;;;;;;;;;;5026753;28;20018;-65
2021/05/07 13:31:36;;;;;;;11.82;2.83;;;;;;;;;;5032852;28;20108;-61
2021/05/07 13:34:03;;;;;;;19.38;3.72;;;;;;;;;;5034052;28;20507;-61
2021/05/07 13:36:30;;;;;;;17.92;3.13;;;;;;;;;;5036521;28;20536;-64
2021/05/07 13:38:59;;;;;;;9.55;2.40;;;;;;;;;;5038193;28;20053;-61
2021/05/07 13:41:26;;;;;;;15.90;3.50;;;;;;;;;;5047073;28;20014;-59
2021/05/07 13:43:53;;;;;;;16.75;2.53;;;;;;;;;;5036020;28;20354;-63
2021/05/07 13:46:20;;;;;;;9.68;2.53;;;;;;;;;;5036988;28;20030;-64
2021/05/07 13:48:47;;;;;;;13.57;2.75;;;;;;;;;;5036133;28;20362;-66
2021/05/07 13:51:14;;;;;;;20.90;4.30;;;;;;;;;;5035602;28;20465;-59
2021/05/07 13:53:41;;;;;;;19.23;2.92;;;;;;;;;;5038733;28;20108;-63
2021/05/07 13:56:08;;;;;;;11.98;2.30;;;;;;;;;;5040526;28;20580;-62
2021/05/07 13:58:34;;;;;;;14.48;2.50;;;;;;;;;;5049224;28;20382;-65
2021/05/07 14:01:02;;;;;;;16.70;2.17;;;;;;;;;;5036162;28;20700;-67
2021/05/07 14:03:28;;;;;;;13.43;3.05;;;;;;;;;;5048501;28;20028;-67
2021/05/07 14:05:55;;;;;;;16.13;2.08;;;;;;;;;;5049106;28;20029;-66
2021/05/07 14:08:22;;;;;;;9.45;2.20;;;;;;;;;;5048910;28;20051;-61
2021/05/07 14:10:50;;;;;;;9.43;2.00;;;;;;;;;;5047133;28;20029;-61
2021/05/07 14:13:17;;;;;;;11.18;2.08;;;;;;;;;;5050688;28;20017;-61
2021/05/07 14:15:44;;;;;;;9.20;2.08;;;;;;;;;;5049867;28;20030;-63
2021/05/07 14:18:10;;;;;;;13.32;2.42;;;;;;;;;;5024885;28;20112;-61
2021/05/07 14:20:38;;;;;;;18.35;2.20;;;;;;;;;;5042120;28;20047;-62
2021/05/07 14:23:07;;;;;;;26.15;2.38;;;;;;;;;;5047396;28;20017;-60